Latest Coastal Weather Observations for Arlington Reef

IDQ60701

Issued at 3:15 pm EST Saturday 29 November 2014 (issued every 10 minutes, with the page automatically refreshed every 10 minutes)

About coastal observations | Map of coastal stations | Coastal observations for QLD | Marine services | Other Formats
Station Details ID: 200879 Name: ARLINGTON REEF Lat: -16.72 Lon: 146.11 Height: 0.0 m
Data from the previous 72 hours. | See also: Recent months at Arlington Reef
Date/Time
EST
Temp

°C
Wind Pressure Rain
since 9am
mm
Weather Cloud Vis
km
Sea
Height
m
Swell
Dir
 
Speed
knots
Gust
knots
hPa Trend Height
m
Period
s
Dir
29/03:03pm - SE 17 27 1009.4 - - - - - - - - -
29/03:00pm - SE 16 19 1009.6 - - - - - - - - -
29/02:30pm - SSE 13 17 1009.9 - - - - - - - - -
29/02:00pm - SE 14 16 1010.0 - - - - - - - - -
29/01:30pm - SE 11 13 1010.3 - - - - - - - - -
29/01:00pm - SSE 10 12 1010.6 - - - - - - - - -
29/12:30pm - SSE 8 9 1010.8 - - - - - - - - -
29/12:00pm - SE 8 12 1011.1 - - - - - - - - -
29/11:30am - SE 16 23 1011.4 - - - - - - - - -
29/11:29am - SE 15 23 1011.4 - - - - - - - - -
29/11:00am - ESE 11 13 1011.8 - - - - - - - - -
29/10:30am - ESE 12 15 1012.0 - - - - - - - - -
29/10:00am - ESE 16 20 1012.2 - - - - - - - - -
29/09:30am - ESE 17 20 1012.3 - - - - - - - - -
29/09:00am - ESE 15 17 1012.2 - - - - - - - - -
29/08:30am - ESE 16 18 1012.1 - - - - - - - - -
29/08:00am - SE 16 20 1011.7 - - - - - - - - -
29/07:30am - SE 15 18 1011.3 - - - - - - - - -
29/07:00am - SE 14 17 1011.0 - - - - - - - - -
29/06:30am - ESE 15 16 1010.8 - - - - - - - - -
29/06:00am - SE 16 19 1010.5 - - - - - - - - -
29/05:30am - SE 15 17 1010.1 - - - - - - - - -
29/05:00am - ESE 15 16 1010.1 - - - - - - - - -
29/04:30am - E 16 18 1009.8 - - - - - - - - -
29/04:00am - SE 14 16 1009.8 - - - - - - - - -
29/03:30am - SE 13 15 1009.8 - - - - - - - - -
29/03:00am - SE 13 16 1009.7 - - - - - - - - -
29/02:30am - SE 14 17 1009.7 - - - - - - - - -
29/02:00am - SE 12 14 1009.9 - - - - - - - - -
29/01:30am - SE 14 18 1010.2 - - - - - - - - -
29/01:00am - SE 13 16 1010.6 - - - - - - - - -
29/12:30am - SE 12 14 1011.0 - - - - - - - - -
29/12:00am - SE 12 15 1011.3 - - - - - - - - -
 
Date/Time
EST
Temp

°C
Wind Pressure Rain
since 9am
mm
Weather Cloud Vis
km
Sea
Height
m
Swell
Dir
 
Speed
knots
Gust
knots
hPa Trend Height
m
Period
s
Dir
28/11:30pm - SE 13 17 1011.6 - - - - - - - - -
28/11:00pm - SE 14 17 1011.9 - - - - - - - - -
28/10:30pm - SSE 13 16 1012.1 - - - - - - - - -
28/10:00pm - SE 13 17 1012.2 - - - - - - - - -
28/09:30pm - SE 14 16 1012.1 - - - - - - - - -
28/09:00pm - SE 15 18 1012.0 - - - - - - - - -
28/08:30pm - SE 17 19 1011.7 - - - - - - - - -
28/08:00pm - SE 15 18 1011.5 - - - - - - - - -
28/07:30pm - SE 16 18 1011.4 - - - - - - - - -
28/07:00pm - SE 16 18 1011.0 - - - - - - - - -
28/06:30pm - SE 15 17 1010.9 - - - - - - - - -
28/06:00pm - SE 16 19 1010.7 - - - - - - - - -
28/05:30pm - SE 17 19 1010.5 - - - - - - - - -
28/05:00pm - SE 16 18 1010.4 - - - - - - - - -
28/04:30pm - SE 14 17 1010.4 - - - - - - - - -
28/04:00pm - SSE 9 17 1010.2 - - - - - - - - -
28/03:30pm - SSE 13 15 1010.1 - - - - - - - - -
28/03:00pm - SE 13 16 1010.4 - - - - - - - - -
28/02:30pm - SE 14 17 1010.5 - - - - - - - - -
28/02:00pm - SE 8 10 1010.7 - - - - - - - - -
28/01:47pm - ESE 26 31 1010.7 - - - - - - - - -
28/01:30pm - SE 12 13 1011.0 - - - - - - - - -
28/01:00pm - SSE 15 19 1011.2 - - - - - - - - -
28/12:30pm - SSE 12 15 1011.5 - - - - - - - - -
28/12:00pm - SSE 13 16 1011.8 - - - - - - - - -
28/11:30am - SE 12 14 1012.0 - - - - - - - - -
28/11:00am - SE 12 14 1012.0 - - - - - - - - -
28/10:30am - SE 11 13 1012.4 - - - - - - - - -
28/10:00am - SE 10 11 1012.6 - - - - - - - - -
28/09:30am - SE 12 14 1012.5 - - - - - - - - -
28/09:00am - SE 11 14 1012.3 - - - - - - - - -
28/08:30am - SE 12 14 1012.3 - - - - - - - - -
28/08:00am - ESE 14 16 1012.0 - - - - - - - - -
28/07:30am - ESE 13 15 1011.7 - - - - - - - - -
28/07:00am - SE 14 16 1011.5 - - - - - - - - -
28/06:30am - SE 14 16 1011.4 - - - - - - - - -
28/06:00am - SE 13 16 1011.1 - - - - - - - - -
28/05:30am - SE 12 14 1010.8 - - - - - - - - -
28/05:00am - SE 12 14 1010.6 - - - - - - - - -
28/04:30am - SE 12 14 1010.5 - - - - - - - - -
28/04:00am - SE 12 15 1010.6 - - - - - - - - -
28/03:30am - SE 13 15 1010.6 - - - - - - - - -
28/03:00am - ESE 13 16 1010.5 - - - - - - - - -
28/02:30am - ESE 13 14 1010.4 - - - - - - - - -
28/02:00am - ESE 13 16 1010.6 - - - - - - - - -
28/01:30am - ESE 14 16 1010.9 - - - - - - - - -
28/01:00am - ESE 14 16 1011.1 - - - - - - - - -
28/12:30am - ESE 14 18 1011.2 - - - - - - - - -
28/12:00am - SE 11 14 1011.5 - - - - - - - - -
 
Date/Time
EST
Temp

°C
Wind Pressure Rain
since 9am
mm
Weather Cloud Vis
km
Sea
Height
m
Swell
Dir
 
Speed
knots
Gust
knots
hPa Trend Height
m
Period
s
Dir
27/11:30pm - SSE 11 13 1011.8 - - - - - - - - -
27/11:00pm - SSE 13 15 1011.7 - - - - - - - - -
27/10:30pm - SE 13 15 1012.0 - - - - - - - - -
27/10:00pm - SSE 14 16 1012.0 - - - - - - - - -
27/09:30pm - SE 15 17 1011.9 - - - - - - - - -
27/09:00pm - SE 15 17 1011.8 - - - - - - - - -
27/08:30pm - SSE 16 18 1011.6 - - - - - - - - -
27/08:00pm - SSE 15 17 1011.5 - - - - - - - - -
27/07:30pm - SSE 15 17 1011.2 - - - - - - - - -
27/07:00pm - SSE 14 16 1011.1 - - - - - - - - -
27/06:30pm - SE 14 16 1010.8 - - - - - - - - -
27/06:00pm - SE 14 16 1010.5 - - - - - - - - -
27/05:30pm - SE 13 16 1010.2 - - - - - - - - -
27/05:00pm - SSE 12 14 1010.2 - - - - - - - - -
27/04:30pm - SSE 12 14 1009.9 - - - - - - - - -
27/04:00pm - SE 12 15 1009.9 - - - - - - - - -
27/03:30pm - SE 13 15 1010.0 - - - - - - - - -
27/03:00pm - SE 13 15 1010.2 - - - - - - - - -
27/02:30pm - SE 12 15 1010.5 - - - - - - - - -
27/02:00pm - SE 12 14 1010.7 - - - - - - - - -
27/01:30pm - SE 11 13 1011.0 - - - - - - - - -
27/01:00pm - ESE 10 12 1011.3 - - - - - - - - -
27/12:30pm - SE 4 5 1011.6 - - - - - - - - -
27/12:00pm - SE 12 17 1012.0 - - - - - - - - -
27/11:30am - SE 11 13 1012.2 - - - - - - - - -
27/11:00am - SE 10 12 1012.4 - - - - - - - - -
27/10:30am - SE 11 13 1012.6 - - - - - - - - -
27/10:00am - SE 13 15 1012.7 - - - - - - - - -
27/09:30am - SE 12 15 1012.9 - - - - - - - - -
27/09:00am - SE 13 16 1012.9 - - - - - - - - -
27/08:30am - SE 13 16 1012.8 - - - - - - - - -
27/08:00am - ESE 13 16 1012.8 - - - - - - - - -
27/07:30am - ESE 12 19 1012.7 - - - - - - - - -
27/07:00am - ESE 12 14 1012.6 - - - - - - - - -
27/06:30am - ESE 12 14 1012.2 - - - - - - - - -
27/06:00am - ESE 11 14 1011.9 - - - - - - - - -
27/05:30am - SE 11 13 1011.6 - - - - - - - - -
27/05:00am - ESE 10 11 1011.4 - - - - - - - - -
27/04:30am - ESE 11 13 1011.1 - - - - - - - - -
27/04:00am - SE 11 13 1011.1 - - - - - - - - -
27/03:30am - ESE 12 14 1010.9 - - - - - - - - -
27/03:00am - ESE 13 15 1010.8 - - - - - - - - -
27/02:30am - ESE 13 15 1010.7 - - - - - - - - -
27/02:00am - ESE 15 18 1010.7 - - - - - - - - -
27/01:30am - ESE 13 16 1010.7 - - - - - - - - -
27/01:00am - ESE 16 18 1010.9 - - - - - - - - -
27/12:30am - ENE 10 14 1011.1 - - - - - - - - -
27/12:00am - E 16 21 1011.3 - - - - - - - - -
 
Date/Time
EST
Temp

°C
Wind Pressure Rain
since 9am
mm
Weather Cloud Vis
km
Sea
Height
m
Swell
Dir
 
Speed
knots
Gust
knots
hPa Trend Height
m
Period
s
Dir
26/11:30pm - E 12 14 1011.7 - - - - - - - - -
26/11:00pm - E 14 16 1012.0 - - - - - - - - -
26/10:30pm - ESE 13 16 1012.0 - - - - - - - - -
26/10:00pm - E 14 17 1012.1 - - - - - - - - -
26/09:30pm - E 13 15 1011.9 - - - - - - - - -
26/09:00pm - SE 7 8 1012.0 - - - - - - - - -
26/08:30pm - SSE 11 13 1011.6 - - - - - - - - -
26/08:00pm - E 11 14 1011.7 - - - - - - - - -
26/07:30pm - SE 14 17 1011.4 - - - - - - - - -
26/07:00pm - SSE 9 11 1011.2 - - - - - - - - -
26/06:30pm - SSE 7 8 1010.9 - - - - - - - - -
26/06:00pm - SSE 8 9 1010.8 - - - - - - - - -
26/05:30pm - SE 8 9 1010.7 - - - - - - - - -
26/05:00pm - SE 7 8 1010.5 - - - - - - - - -
26/04:30pm - SE 8 9 1010.4 - - - - - - - - -
26/04:00pm - SE 8 10 1010.3 - - - - - - - - -
26/03:30pm - SE 9 11 1010.2 - - - - - - - - -

Other Formats:

Comma delimited format used in spreadsheet applications
http://www.bom.gov.au/fwo/IDQ60701/IDQ60701.94284.axf

JavaScript Object Notation format (JSON) in row-major order
http://www.bom.gov.au/fwo/IDQ60701/IDQ60701.94284.json